createdAt,value
2024-05-09T00:01:03.715Z,21.09
2024-05-09T00:01:33.689Z,21.06
2024-05-09T00:02:03.713Z,21.07
2024-05-09T00:02:33.710Z,21.06
2024-05-09T00:03:33.715Z,21.09
2024-05-09T00:04:03.715Z,21.07
2024-05-09T00:06:33.608Z,21.05
2024-05-09T00:07:03.625Z,21.06
2024-05-09T00:07:33.601Z,21.06
2024-05-09T00:08:03.788Z,21.06
2024-05-09T00:08:33.729Z,21.07
2024-05-09T00:09:03.610Z,21.07
2024-05-09T00:09:33.594Z,21.07
2024-05-09T00:11:33.674Z,21.06
2024-05-09T00:12:03.673Z,21.07
2024-05-09T00:13:33.524Z,21.07
2024-05-09T00:14:03.610Z,21.07
2024-05-09T00:14:33.572Z,21.06
2024-05-09T00:16:03.507Z,21.06
2024-05-09T00:18:04.101Z,21.05
2024-05-09T00:18:33.611Z,21.06
2024-05-09T00:19:03.556Z,21.06
2024-05-09T00:20:05.321Z,21.05
2024-05-09T00:20:38.691Z,21.05
2024-05-09T00:22:33.431Z,21.07
2024-05-09T00:23:33.459Z,21.06
2024-05-09T00:24:33.405Z,21.06
2024-05-09T00:25:03.399Z,21.05
2024-05-09T00:25:33.414Z,21.05
2024-05-09T00:27:03.385Z,21.05
2024-05-09T00:28:03.425Z,21.03
2024-05-09T00:29:03.379Z,21.03
2024-05-09T00:30:04.260Z,21.03
2024-05-09T00:30:36.101Z,21.03
2024-05-09T00:31:03.339Z,21.03
2024-05-09T00:31:33.322Z,21.03
2024-05-09T00:33:33.519Z,21.03
2024-05-09T00:34:33.349Z,21.05
2024-05-09T00:35:33.512Z,21.03
2024-05-09T00:36:03.269Z,21.03
2024-05-09T00:37:33.262Z,21.00
2024-05-09T00:38:03.570Z,21.02
2024-05-09T00:39:03.243Z,21.02
2024-05-09T00:40:03.597Z,21.02
2024-05-09T00:41:03.272Z,21.02
2024-05-09T00:41:33.285Z,21.02
2024-05-09T00:43:03.201Z,21.00
2024-05-09T00:43:33.199Z,21.00
2024-05-09T00:44:33.222Z,21.00
2024-05-09T00:45:33.175Z,21.03
2024-05-09T00:46:33.148Z,21.03
2024-05-09T00:47:03.260Z,21.02
2024-05-09T00:49:03.199Z,21.02
2024-05-09T00:50:04.152Z,20.99
2024-05-09T00:50:36.522Z,21.02
2024-05-09T00:51:03.196Z,21.02
2024-05-09T00:51:33.105Z,21.02
2024-05-09T00:52:03.091Z,21.02
2024-05-09T00:52:33.083Z,21.02
2024-05-09T00:53:33.258Z,21.02
2024-05-09T00:54:33.050Z,20.97
2024-05-09T00:55:33.056Z,20.99
2024-05-09T00:56:33.095Z,20.97
2024-05-09T00:57:03.050Z,20.99
2024-05-09T00:57:33.040Z,20.99
2024-05-09T00:59:03.030Z,20.96
2024-05-09T01:00:04.757Z,20.96
2024-05-09T01:01:03.043Z,20.97
2024-05-09T01:02:03.048Z,20.96
2024-05-09T01:03:33.325Z,20.96
2024-05-09T01:04:03.109Z,20.96
2024-05-09T01:04:33.013Z,20.96
2024-05-09T01:05:33.074Z,20.97
2024-05-09T01:07:32.960Z,20.96
2024-05-09T01:09:02.894Z,20.95
2024-05-09T01:09:32.890Z,20.95
2024-05-09T01:10:03.261Z,20.96
2024-05-09T01:11:03.026Z,20.96
2024-05-09T01:11:32.966Z,20.97
2024-05-09T01:12:32.931Z,20.97
2024-05-09T01:13:02.908Z,20.96
2024-05-09T01:14:32.864Z,20.95
2024-05-09T01:15:02.832Z,20.93
2024-05-09T01:15:32.829Z,20.93
2024-05-09T01:16:32.829Z,20.95
2024-05-09T01:18:32.860Z,20.96
2024-05-09T01:19:02.917Z,20.96
2024-05-09T01:20:04.235Z,20.95
2024-05-09T01:21:02.788Z,20.95
2024-05-09T01:21:32.747Z,20.93
2024-05-09T01:22:32.748Z,20.95
2024-05-09T01:23:02.755Z,20.93
2024-05-09T01:24:32.713Z,20.93
2024-05-09T01:25:02.708Z,20.96
2024-05-09T01:25:32.737Z,20.95
2024-05-09T01:27:32.683Z,20.95
2024-05-09T01:29:02.714Z,20.93
2024-05-09T01:30:04.086Z,20.93
2024-05-09T01:30:35.757Z,20.92
2024-05-09T01:31:02.645Z,20.93
2024-05-09T01:31:32.684Z,20.93
2024-05-09T01:34:02.699Z,20.93
2024-05-09T01:34:32.608Z,20.95
2024-05-09T01:35:32.655Z,20.96
2024-05-09T01:36:02.594Z,20.93
2024-05-09T01:36:32.578Z,20.92
2024-05-09T01:38:02.733Z,20.92
2024-05-09T01:39:32.541Z,20.90
2024-05-09T01:40:03.530Z,20.90
2024-05-09T01:41:02.560Z,20.88
2024-05-09T01:42:02.513Z,20.88
2024-05-09T01:42:32.512Z,20.90
2024-05-09T01:43:32.496Z,20.90
2024-05-09T01:45:02.476Z,20.90
2024-05-09T01:45:32.496Z,20.90
2024-05-09T01:46:32.460Z,20.90
2024-05-09T01:48:03.005Z,20.92
2024-05-09T01:48:32.525Z,20.88
2024-05-09T01:49:02.508Z,20.90
2024-05-09T01:51:02.501Z,20.90
2024-05-09T01:51:32.404Z,20.88
2024-05-09T01:53:02.464Z,20.88
2024-05-09T01:53:32.533Z,20.88
2024-05-09T01:54:02.369Z,20.90
2024-05-09T01:54:32.375Z,20.90
2024-05-09T01:57:32.337Z,20.88
2024-05-09T01:58:02.335Z,20.88
2024-05-09T01:58:32.347Z,20.87
2024-05-09T01:59:32.414Z,20.87
2024-05-09T02:00:02.308Z,20.87
2024-05-09T02:01:02.430Z,20.88
2024-05-09T02:03:02.549Z,20.87
2024-05-09T02:03:32.433Z,20.88
2024-05-09T02:04:02.727Z,20.90
2024-05-09T02:05:32.519Z,20.88
2024-05-09T02:06:32.231Z,20.87
2024-05-09T02:07:32.217Z,20.85
2024-05-09T02:08:32.342Z,20.87
2024-05-09T02:09:02.224Z,20.87
2024-05-09T02:09:32.202Z,20.88
2024-05-09T02:11:02.322Z,20.87
2024-05-09T02:12:02.313Z,20.87
2024-05-09T02:14:02.173Z,20.88
2024-05-09T02:14:32.202Z,20.87
2024-05-09T02:15:02.146Z,20.88
2024-05-09T02:16:02.133Z,20.85
2024-05-09T02:16:32.130Z,20.87
2024-05-09T02:17:32.234Z,20.85
2024-05-09T02:19:32.223Z,20.85
2024-05-09T02:20:02.182Z,20.85
2024-05-09T02:20:36.248Z,20.85
2024-05-09T02:21:02.172Z,20.82
2024-05-09T02:21:32.064Z,20.84
2024-05-09T02:22:02.060Z,20.84
2024-05-09T02:23:02.144Z,20.84
2024-05-09T02:25:02.019Z,20.84
2024-05-09T02:26:02.024Z,20.84
2024-05-09T02:26:32.098Z,20.82
2024-05-09T02:27:01.991Z,20.81
2024-05-09T02:27:31.994Z,20.82
2024-05-09T02:29:32.070Z,20.85
2024-05-09T02:30:39.175Z,20.84
2024-05-09T02:31:31.966Z,20.87
2024-05-09T02:32:02.077Z,20.85
2024-05-09T02:33:02.075Z,20.84
2024-05-09T02:33:32.169Z,20.84
2024-05-09T02:35:01.992Z,20.84
2024-05-09T02:36:01.886Z,20.82
2024-05-09T02:37:01.898Z,20.84
2024-05-09T02:37:31.876Z,20.84
2024-05-09T02:38:31.978Z,20.84
2024-05-09T02:39:01.899Z,20.84
2024-05-09T02:39:31.868Z,20.82
2024-05-09T02:40:37.063Z,20.82
2024-05-09T02:41:31.898Z,20.84
2024-05-09T02:42:31.817Z,20.82
2024-05-09T02:43:01.808Z,20.84
2024-05-09T02:45:01.792Z,20.84
2024-05-09T02:45:31.783Z,20.82
2024-05-09T02:46:01.778Z,20.82
2024-05-09T02:47:01.801Z,20.84
2024-05-09T02:48:02.360Z,20.85
2024-05-09T02:48:31.886Z,20.85
2024-05-09T02:50:37.883Z,20.84
2024-05-09T02:51:01.733Z,20.85
2024-05-09T02:51:31.738Z,20.82
2024-05-09T02:52:31.707Z,20.82
2024-05-09T02:53:31.829Z,20.82
2024-05-09T02:55:01.692Z,20.82
2024-05-09T02:56:01.695Z,20.81
2024-05-09T02:56:31.736Z,20.81
2024-05-09T02:57:01.665Z,20.81
2024-05-09T02:58:01.637Z,20.81
2024-05-09T02:59:01.686Z,20.81
2024-05-09T03:00:38.289Z,20.81
2024-05-09T03:01:31.615Z,20.81
2024-05-09T03:02:31.650Z,20.80
2024-05-09T03:03:01.860Z,20.80
2024-05-09T03:03:31.900Z,20.81
2024-05-09T03:05:31.704Z,20.80
2024-05-09T03:06:01.572Z,20.81
2024-05-09T03:07:01.551Z,20.80
2024-05-09T03:08:01.654Z,20.81
2024-05-09T03:08:31.686Z,20.81
2024-05-09T03:10:01.500Z,20.80
2024-05-09T03:11:01.549Z,20.80
2024-05-09T03:11:31.584Z,20.80
2024-05-09T03:12:31.526Z,20.80
2024-05-09T03:13:31.470Z,20.80
2024-05-09T03:14:31.540Z,20.78
2024-05-09T03:15:01.446Z,20.81
2024-05-09T03:15:31.443Z,20.81
2024-05-09T03:16:31.437Z,20.78
2024-05-09T03:17:01.501Z,20.80
2024-05-09T03:18:01.880Z,20.78
2024-05-09T03:20:01.401Z,20.80
2024-05-09T03:20:34.819Z,20.81
2024-05-09T03:21:01.484Z,20.80
2024-05-09T03:22:01.369Z,20.80
2024-05-09T03:22:31.353Z,20.80
2024-05-09T03:23:31.365Z,20.78
2024-05-09T03:25:31.399Z,20.74
2024-05-09T03:26:01.413Z,20.75
2024-05-09T03:26:31.389Z,20.75
2024-05-09T03:28:01.434Z,20.74
2024-05-09T03:28:31.284Z,20.74
2024-05-09T03:29:01.337Z,20.74
2024-05-09T03:29:31.345Z,20.74
2024-05-09T03:31:01.266Z,20.74
2024-05-09T03:31:31.257Z,20.75
2024-05-09T03:33:01.363Z,20.75
2024-05-09T03:33:31.583Z,20.75
2024-05-09T03:35:01.252Z,20.77
2024-05-09T03:35:31.278Z,20.77
2024-05-09T03:36:31.191Z,20.75
2024-05-09T03:38:01.225Z,20.77
2024-05-09T03:39:01.219Z,20.77
2024-05-09T03:39:31.173Z,20.77
2024-05-09T03:40:31.474Z,20.77
2024-05-09T03:41:01.222Z,20.75
2024-05-09T03:42:01.213Z,20.75
2024-05-09T03:43:01.126Z,20.74
2024-05-09T03:43:31.127Z,20.74
2024-05-09T03:44:31.285Z,20.74
2024-05-09T03:45:01.113Z,20.74
2024-05-09T03:46:01.102Z,20.75
2024-05-09T03:48:31.125Z,20.75
2024-05-09T03:49:01.177Z,20.75
2024-05-09T03:49:31.094Z,20.77
2024-05-09T03:50:01.158Z,20.75
2024-05-09T03:50:35.485Z,20.75
2024-05-09T03:52:31.018Z,20.75
2024-05-09T03:54:01.020Z,20.77
2024-05-09T03:54:30.985Z,20.77
2024-05-09T03:55:00.997Z,20.75
2024-05-09T03:55:31.174Z,20.74
2024-05-09T03:56:01.046Z,20.75
2024-05-09T03:58:00.976Z,20.77
2024-05-09T03:59:31.146Z,20.74
2024-05-09T04:00:00.918Z,20.75
2024-05-09T04:00:37.450Z,20.74
2024-05-09T04:01:00.974Z,20.74
2024-05-09T04:01:31.112Z,20.74
2024-05-09T04:02:01.101Z,20.74
2024-05-09T04:03:31.038Z,20.72
2024-05-09T04:05:00.899Z,20.72
2024-05-09T04:06:00.884Z,20.74
2024-05-09T04:06:30.860Z,20.72
2024-05-09T04:07:00.852Z,20.72
2024-05-09T04:08:30.928Z,20.72
2024-05-09T04:09:00.826Z,20.72
2024-05-09T04:10:33.914Z,20.72
2024-05-09T04:11:30.903Z,20.72
2024-05-09T04:12:30.863Z,20.75
2024-05-09T04:13:00.846Z,20.75
2024-05-09T04:14:00.815Z,20.75
2024-05-09T04:15:30.924Z,20.74
2024-05-09T04:16:00.749Z,20.74
2024-05-09T04:17:00.757Z,20.72
2024-05-09T04:18:30.796Z,20.72
2024-05-09T04:19:30.766Z,20.74
2024-05-09T04:20:00.875Z,20.74
2024-05-09T04:21:30.678Z,20.70
2024-05-09T04:22:00.675Z,20.74
2024-05-09T04:23:00.749Z,20.74
2024-05-09T04:23:30.905Z,20.72
2024-05-09T04:24:00.646Z,20.72
2024-05-09T04:25:00.656Z,20.72
2024-05-09T04:25:30.639Z,20.72
2024-05-09T04:27:00.636Z,20.72
2024-05-09T04:28:30.608Z,20.69
2024-05-09T04:29:00.657Z,20.69
2024-05-09T04:29:30.750Z,20.70
2024-05-09T04:30:37.332Z,20.70
2024-05-09T04:32:00.716Z,20.72
2024-05-09T04:32:30.738Z,20.72
2024-05-09T04:33:00.639Z,20.70
2024-05-09T04:34:00.671Z,20.72
2024-05-09T04:34:30.579Z,20.74
2024-05-09T04:35:00.554Z,20.72
2024-05-09T04:37:00.521Z,20.72
2024-05-09T04:38:00.730Z,20.70
2024-05-09T04:38:30.532Z,20.72
2024-05-09T04:39:30.501Z,20.75
2024-05-09T04:40:00.476Z,20.74
2024-05-09T04:40:34.393Z,20.74
2024-05-09T04:42:30.459Z,20.74
2024-05-09T04:43:30.433Z,20.74
2024-05-09T04:44:00.448Z,20.74
2024-05-09T04:45:00.437Z,20.75
2024-05-09T04:45:30.456Z,20.75
2024-05-09T04:47:00.428Z,20.74
2024-05-09T04:48:01.193Z,20.75
2024-05-09T04:49:00.491Z,20.74
2024-05-09T04:49:30.399Z,20.75
2024-05-09T04:50:36.735Z,20.75
2024-05-09T04:51:00.385Z,20.77
2024-05-09T04:52:30.334Z,20.75
2024-05-09T04:53:30.330Z,20.74
2024-05-09T04:54:36.078Z,20.72
2024-05-09T04:55:00.310Z,20.74
2024-05-09T04:56:00.338Z,20.74
2024-05-09T04:57:30.277Z,20.74
2024-05-09T04:58:00.327Z,20.74
2024-05-09T04:59:00.267Z,20.75
2024-05-09T05:00:36.043Z,20.74
2024-05-09T05:01:00.231Z,20.72
2024-05-09T05:01:30.318Z,20.74
2024-05-09T05:03:30.432Z,20.74
2024-05-09T05:04:30.271Z,20.74
2024-05-09T05:05:00.349Z,20.75
2024-05-09T05:06:00.252Z,20.77
2024-05-09T05:06:30.204Z,20.77
2024-05-09T05:07:02.523Z,20.78
2024-05-09T05:09:00.147Z,20.75
2024-05-09T05:10:00.146Z,20.75
2024-05-09T05:10:35.749Z,20.77
2024-05-09T05:11:00.215Z,20.78
2024-05-09T05:11:30.194Z,20.77
2024-05-09T05:12:00.269Z,20.77
2024-05-09T05:13:30.095Z,20.75
2024-05-09T05:14:30.222Z,20.80
2024-05-09T05:16:00.061Z,20.80
2024-05-09T05:16:30.064Z,20.81
2024-05-09T05:17:00.076Z,20.81
2024-05-09T05:17:30.240Z,20.81
2024-05-09T05:18:00.663Z,20.82
2024-05-09T05:19:00.165Z,20.82
2024-05-09T05:20:00.175Z,20.81
2024-05-09T05:21:30.168Z,20.82
2024-05-09T05:21:59.995Z,20.81
2024-05-09T05:23:00.029Z,20.81
2024-05-09T05:23:30.028Z,20.81
2024-05-09T05:24:29.963Z,20.84
2024-05-09T05:25:29.943Z,20.85
2024-05-09T05:26:59.927Z,20.84
2024-05-09T05:27:29.934Z,20.84
2024-05-09T05:28:29.921Z,20.85
2024-05-09T05:28:59.965Z,20.87
2024-05-09T05:29:59.900Z,20.85
2024-05-09T05:30:59.892Z,20.88
2024-05-09T05:32:29.954Z,20.92
2024-05-09T05:33:00.335Z,20.90
2024-05-09T05:33:59.908Z,20.92
2024-05-09T05:34:29.843Z,20.92
2024-05-09T05:34:59.891Z,20.92
2024-05-09T05:35:30.066Z,20.93
2024-05-09T05:36:29.822Z,20.93
2024-05-09T05:37:29.836Z,20.93
2024-05-09T05:37:59.841Z,20.95
2024-05-09T05:38:29.858Z,20.93
2024-05-09T05:39:59.785Z,20.96
2024-05-09T05:40:59.846Z,20.95
2024-05-09T05:41:29.842Z,20.96
2024-05-09T05:42:59.743Z,20.99
2024-05-09T05:44:29.832Z,21.02
2024-05-09T05:44:59.734Z,21.05
2024-05-09T05:45:29.790Z,21.05
2024-05-09T05:45:59.741Z,21.06
2024-05-09T05:47:29.874Z,21.06
2024-05-09T05:48:59.708Z,21.07
2024-05-09T05:49:29.735Z,21.09
2024-05-09T05:49:59.720Z,21.12
2024-05-09T05:51:02.688Z,21.14
2024-05-09T05:51:59.643Z,21.17
2024-05-09T05:52:29.640Z,21.17
2024-05-09T05:53:59.621Z,21.17
2024-05-09T05:54:29.613Z,21.15
2024-05-09T05:54:59.604Z,21.18
2024-05-09T05:55:59.641Z,21.20
2024-05-09T05:56:29.649Z,21.21
2024-05-09T05:57:29.587Z,21.22
2024-05-09T05:58:59.594Z,21.22
2024-05-09T05:59:59.563Z,21.24
2024-05-09T06:00:37.197Z,21.24
2024-05-09T06:01:29.635Z,21.22
2024-05-09T06:01:59.574Z,21.24
2024-05-09T06:02:59.652Z,21.29
2024-05-09T06:04:29.548Z,21.33
2024-05-09T06:05:29.527Z,21.33
2024-05-09T06:05:59.791Z,21.35
2024-05-09T06:07:29.467Z,21.36
2024-05-09T06:08:30.452Z,21.37
2024-05-09T06:09:59.476Z,21.42
2024-05-09T06:10:37.631Z,21.43
2024-05-09T06:11:29.527Z,21.42
2024-05-09T06:11:59.470Z,21.40
2024-05-09T06:12:59.403Z,21.40
2024-05-09T06:13:59.425Z,21.43
2024-05-09T06:14:59.452Z,21.46
2024-05-09T06:15:29.369Z,21.46
2024-05-09T06:15:59.374Z,21.48
2024-05-09T06:16:59.389Z,21.50
2024-05-09T06:17:29.509Z,21.50
2024-05-09T06:18:29.586Z,21.50
2024-05-09T06:20:35.796Z,21.52
2024-05-09T06:20:59.318Z,21.52
2024-05-09T06:21:29.328Z,21.54
2024-05-09T06:22:29.289Z,21.57
2024-05-09T06:22:59.310Z,21.57
2024-05-09T06:23:59.275Z,21.60
2024-05-09T06:25:59.277Z,21.62
2024-05-09T06:26:59.244Z,21.66
2024-05-09T06:27:29.247Z,21.66
2024-05-09T06:27:59.264Z,21.66
2024-05-09T06:28:29.236Z,21.67
2024-05-09T06:29:29.367Z,21.67
2024-05-09T06:31:29.195Z,21.69
2024-05-09T06:32:29.406Z,21.72
2024-05-09T06:32:59.263Z,21.70
2024-05-09T06:33:29.423Z,21.72
2024-05-09T06:33:59.340Z,21.72
2024-05-09T06:34:59.175Z,21.72
2024-05-09T06:36:59.125Z,21.75
2024-05-09T06:37:59.173Z,21.75
2024-05-09T06:38:29.145Z,21.76
2024-05-09T06:38:59.117Z,21.77
2024-05-09T06:39:29.099Z,21.77
2024-05-09T06:41:29.159Z,21.77
2024-05-09T06:42:29.058Z,21.79
2024-05-09T06:43:29.061Z,21.80
2024-05-09T06:43:59.188Z,21.80
2024-05-09T06:44:59.088Z,21.82
2024-05-09T06:46:29.023Z,21.80
2024-05-09T06:47:00.043Z,21.79
2024-05-09T06:47:59.260Z,21.79
2024-05-09T06:48:59.248Z,21.80
2024-05-09T06:49:29.136Z,21.80
2024-05-09T06:50:36.813Z,21.77
2024-05-09T06:51:58.965Z,21.77
2024-05-09T06:52:28.966Z,21.77
2024-05-09T06:53:29.022Z,21.79
2024-05-09T06:54:58.930Z,21.80
2024-05-09T06:55:28.937Z,21.80
2024-05-09T06:55:58.998Z,21.82
2024-05-09T06:57:28.923Z,21.82
2024-05-09T06:57:58.892Z,21.82
2024-05-09T06:58:58.920Z,21.82
2024-05-09T07:00:58.883Z,21.83
2024-05-09T07:01:28.960Z,21.83
2024-05-09T07:01:58.900Z,21.85
2024-05-09T07:02:29.052Z,21.83
2024-05-09T07:03:01.677Z,21.85
2024-05-09T07:03:28.994Z,21.85
2024-05-09T07:04:28.971Z,21.85
2024-05-09T07:06:58.806Z,21.85
2024-05-09T07:07:28.792Z,21.88
2024-05-09T07:07:58.798Z,21.85
2024-05-09T07:08:28.799Z,21.89
2024-05-09T07:08:58.785Z,21.89
2024-05-09T07:09:58.757Z,21.89
2024-05-09T07:12:28.893Z,21.91
2024-05-09T07:12:58.727Z,21.92
2024-05-09T07:13:28.723Z,21.92
2024-05-09T07:14:28.915Z,21.92
2024-05-09T07:14:58.712Z,21.93
2024-05-09T07:16:28.693Z,21.93
2024-05-09T07:17:58.863Z,21.93
2024-05-09T07:18:28.915Z,21.93
2024-05-09T07:18:59.493Z,21.95
2024-05-09T07:19:58.817Z,21.93
2024-05-09T07:20:34.416Z,21.95
2024-05-09T07:21:58.624Z,21.96
2024-05-09T07:23:28.611Z,21.98
2024-05-09T07:24:28.592Z,21.98
2024-05-09T07:24:58.618Z,21.99
2024-05-09T07:25:28.769Z,21.99
2024-05-09T07:25:58.647Z,21.98
2024-05-09T07:27:28.583Z,21.99
2024-05-09T07:27:58.569Z,22.02
2024-05-09T07:28:58.594Z,22.04
2024-05-09T07:29:58.553Z,22.04
2024-05-09T07:30:58.602Z,22.07
2024-05-09T07:31:28.529Z,22.07
2024-05-09T07:33:28.855Z,22.08
2024-05-09T07:34:28.599Z,22.10
2024-05-09T07:34:58.531Z,22.11
2024-05-09T07:35:28.751Z,22.11
2024-05-09T07:36:58.459Z,22.14
2024-05-09T07:37:28.463Z,22.14
2024-05-09T07:38:58.434Z,22.18
2024-05-09T07:39:58.435Z,22.25
2024-05-09T07:40:58.488Z,22.33
2024-05-09T07:41:28.452Z,22.36
2024-05-09T07:42:28.410Z,22.45
2024-05-09T07:44:28.496Z,22.48
2024-05-09T07:45:14.730Z,22.50
2024-05-09T07:47:36.483Z,22.51
2024-05-09T07:50:53.132Z,22.51
2024-05-09T07:53:32.543Z,22.55
2024-05-09T07:53:49.321Z,22.87
2024-05-09T07:54:56.203Z,23.13
2024-05-09T07:55:26.042Z,23.20
2024-05-09T07:55:56.634Z,23.24
2024-05-09T07:57:25.944Z,23.40
2024-05-09T07:58:25.896Z,23.48
2024-05-09T07:59:25.882Z,23.59
2024-05-09T08:00:31.079Z,23.69
2024-05-09T08:01:55.991Z,23.80
2024-05-09T08:02:25.941Z,23.83
2024-05-09T08:02:55.960Z,23.87
2024-05-09T08:03:56.124Z,23.95
2024-05-09T08:04:55.925Z,24.03
2024-05-09T08:05:55.809Z,24.13
2024-05-09T08:07:25.791Z,24.23
2024-05-09T08:07:55.794Z,24.28
2024-05-09T08:08:25.780Z,24.30
2024-05-09T08:09:25.768Z,24.39
2024-05-09T08:10:28.940Z,24.45
2024-05-09T08:11:25.768Z,24.53
2024-05-09T08:12:55.764Z,24.63
2024-05-09T08:13:55.795Z,24.69
2024-05-09T08:14:25.720Z,24.70
2024-05-09T08:14:55.711Z,24.69
2024-05-09T08:15:55.788Z,24.78
2024-05-09T08:16:55.723Z,24.81
2024-05-09T08:18:25.845Z,24.86
2024-05-09T08:19:25.730Z,24.88
2024-05-09T08:19:55.653Z,24.88
2024-05-09T08:20:31.114Z,24.88
2024-05-09T08:21:25.641Z,24.86
2024-05-09T08:23:25.614Z,24.69
2024-05-09T08:23:55.605Z,24.61
2024-05-09T08:24:55.656Z,24.48
2024-05-09T08:25:25.707Z,24.38
2024-05-09T08:25:55.583Z,24.32
2024-05-09T08:27:55.644Z,24.10
2024-05-09T08:28:55.544Z,24.01
2024-05-09T08:29:25.530Z,23.95
2024-05-09T08:30:32.796Z,23.87
2024-05-09T08:30:55.712Z,23.87
2024-05-09T08:32:25.514Z,23.77
2024-05-09T08:33:25.713Z,23.74
2024-05-09T08:34:25.566Z,23.71
2024-05-09T08:34:55.612Z,23.69
2024-05-09T08:35:55.478Z,23.68
2024-05-09T08:36:25.475Z,23.68
2024-05-09T08:37:55.501Z,23.63
2024-05-09T08:38:55.421Z,23.62
2024-05-09T08:39:55.492Z,23.63
2024-05-09T08:40:32.937Z,23.63
2024-05-09T08:42:25.401Z,23.62
2024-05-09T08:42:55.405Z,23.63
2024-05-09T08:43:25.389Z,23.65
2024-05-09T08:44:25.374Z,23.63
2024-05-09T08:45:25.399Z,23.63
2024-05-09T08:46:25.537Z,23.65
2024-05-09T08:46:55.348Z,23.65
2024-05-09T08:47:55.444Z,23.68
2024-05-09T08:48:25.531Z,23.66
2024-05-09T08:48:55.534Z,23.66
2024-05-09T08:49:55.316Z,23.68
2024-05-09T08:51:55.327Z,23.68
2024-05-09T08:52:25.268Z,23.68
2024-05-09T08:53:25.267Z,23.69
2024-05-09T08:53:55.266Z,23.69
2024-05-09T08:54:25.271Z,23.71
2024-05-09T08:55:25.387Z,23.71
2024-05-09T08:57:25.215Z,23.73
2024-05-09T08:57:55.258Z,23.74
2024-05-09T08:58:55.205Z,23.76
2024-05-09T08:59:55.184Z,23.77
2024-05-09T09:00:33.876Z,23.78
2024-05-09T09:00:55.360Z,23.77
2024-05-09T09:02:55.209Z,23.83
2024-05-09T09:03:25.302Z,23.83
2024-05-09T09:03:55.353Z,23.83
2024-05-09T09:04:25.257Z,23.84
2024-05-09T09:05:25.374Z,23.86
2024-05-09T09:05:55.133Z,23.86
2024-05-09T09:06:25.111Z,23.87
2024-05-09T09:08:55.100Z,23.91
2024-05-09T09:09:25.094Z,23.91
2024-05-09T09:09:55.114Z,23.92
2024-05-09T09:11:55.113Z,23.96
2024-05-09T09:12:25.051Z,23.98
2024-05-09T09:13:55.031Z,24.02
2024-05-09T09:14:25.022Z,24.03
2024-05-09T09:14:55.030Z,24.05
2024-05-09T09:15:25.020Z,24.06
2024-05-09T09:15:55.111Z,24.08
2024-05-09T09:17:25.084Z,24.13
2024-05-09T09:17:55.048Z,24.14
2024-05-09T09:19:25.120Z,24.18
2024-05-09T09:19:55.043Z,24.18
2024-05-09T09:20:55.288Z,24.24
2024-05-09T09:21:24.957Z,24.29
2024-05-09T09:22:54.931Z,24.36
2024-05-09T09:23:24.921Z,24.43
2024-05-09T09:24:54.956Z,24.68
2024-05-09T09:25:24.904Z,24.77
2024-05-09T09:26:24.940Z,24.95
2024-05-09T09:26:54.965Z,25.07
2024-05-09T09:29:24.865Z,25.58
2024-05-09T09:29:54.859Z,25.66
2024-05-09T09:30:34.654Z,25.77
2024-05-09T09:30:54.895Z,25.85
2024-05-09T09:31:54.836Z,25.99
2024-05-09T09:34:24.970Z,26.29
2024-05-09T09:34:54.868Z,26.33
2024-05-09T09:35:24.797Z,26.37
2024-05-09T09:35:54.783Z,26.44
2024-05-09T09:37:24.765Z,26.66
2024-05-09T09:38:24.757Z,26.75
2024-05-09T09:39:24.781Z,26.89
2024-05-09T09:39:54.779Z,26.96
2024-05-09T09:40:31.077Z,26.99
2024-05-09T09:40:54.780Z,27.02
2024-05-09T09:42:24.723Z,27.17
2024-05-09T09:42:54.733Z,27.22
2024-05-09T09:45:02.057Z,27.30
2024-05-09T09:45:24.692Z,27.32
2024-05-09T09:45:54.724Z,27.33
2024-05-09T09:47:24.714Z,27.44
2024-05-09T09:47:54.734Z,27.45
2024-05-09T09:49:24.701Z,27.52
2024-05-09T09:50:33.215Z,27.55
2024-05-09T09:50:54.621Z,27.58
2024-05-09T09:52:24.704Z,27.65
2024-05-09T09:53:54.597Z,27.68
2024-05-09T09:54:24.590Z,27.68
2024-05-09T09:54:54.897Z,27.71
2024-05-09T09:55:54.568Z,27.75
2024-05-09T09:56:24.624Z,27.75
2024-05-09T09:58:54.534Z,27.98
2024-05-09T09:59:24.532Z,28.00
2024-05-09T09:59:54.536Z,28.02
2024-05-09T10:00:30.647Z,28.08
2024-05-09T10:00:54.684Z,28.05
2024-05-09T10:01:24.683Z,28.05
2024-05-09T10:02:54.522Z,28.19
2024-05-09T10:04:24.535Z,28.29
2024-05-09T10:04:54.601Z,28.33
2024-05-09T10:05:54.572Z,28.38
2024-05-09T10:06:54.489Z,28.32
2024-05-09T10:08:24.428Z,28.23
2024-05-09T10:09:24.412Z,28.25
2024-05-09T10:10:31.435Z,28.30
2024-05-09T10:10:54.597Z,28.29
2024-05-09T10:11:24.418Z,28.25
2024-05-09T10:12:24.439Z,28.35
2024-05-09T10:13:54.376Z,28.30
2024-05-09T10:14:54.382Z,28.33
2024-05-09T10:15:54.800Z,28.38
2024-05-09T10:16:54.326Z,28.33
2024-05-09T10:17:54.428Z,27.96
2024-05-09T10:18:26.335Z,27.83
2024-05-09T10:19:24.454Z,27.64
2024-05-09T10:20:28.183Z,27.29
2024-05-09T10:22:24.298Z,27.27
2024-05-09T10:22:54.259Z,27.17
2024-05-09T10:23:24.259Z,27.02
2024-05-09T10:23:54.300Z,26.88
2024-05-09T10:24:54.287Z,26.60
2024-05-09T10:26:54.223Z,26.19
2024-05-09T10:27:54.261Z,26.00
2024-05-09T10:28:24.200Z,25.91
2024-05-09T10:29:24.205Z,25.84
2024-05-09T10:29:54.193Z,25.81
2024-05-09T10:32:24.322Z,25.88
2024-05-09T10:33:24.264Z,25.99
2024-05-09T10:33:54.321Z,26.00
2024-05-09T10:34:54.168Z,25.88
2024-05-09T10:35:24.121Z,25.87
2024-05-09T10:35:54.118Z,25.90
2024-05-09T10:38:54.107Z,25.73
2024-05-09T10:39:24.166Z,25.72
2024-05-09T10:39:54.090Z,25.72
2024-05-09T10:40:29.391Z,25.70
2024-05-09T10:41:24.124Z,25.60
2024-05-09T10:41:54.042Z,25.54
2024-05-09T10:44:24.030Z,25.75
2024-05-09T10:44:54.028Z,25.73
2024-05-09T10:45:24.036Z,25.68
2024-05-09T10:45:54.072Z,25.66
2024-05-09T10:47:24.195Z,25.47
2024-05-09T10:47:54.135Z,25.41
2024-05-09T10:49:54.051Z,25.22
2024-05-09T10:50:28.661Z,25.16
2024-05-09T10:51:23.943Z,25.11
2024-05-09T10:51:54.039Z,25.10
2024-05-09T10:52:53.931Z,25.06
2024-05-09T10:53:23.921Z,25.06
2024-05-09T10:55:24.050Z,24.92
2024-05-09T10:55:53.901Z,24.92
2024-05-09T10:56:23.898Z,24.91
2024-05-09T10:57:23.882Z,24.89
2024-05-09T10:57:53.941Z,24.89
2024-05-09T10:58:23.912Z,24.85
2024-05-09T10:58:53.871Z,24.86
2024-05-09T11:01:23.894Z,24.86
2024-05-09T11:01:53.926Z,24.89
2024-05-09T11:02:53.859Z,25.23
2024-05-09T11:03:23.915Z,25.51
2024-05-09T11:03:54.020Z,25.80
2024-05-09T11:04:23.905Z,26.05
2024-05-09T11:07:23.835Z,26.66
2024-05-09T11:07:53.782Z,26.81
2024-05-09T11:08:23.765Z,26.88
2024-05-09T11:08:53.781Z,26.97
2024-05-09T11:09:23.734Z,27.11
2024-05-09T11:09:53.783Z,27.25
2024-05-09T11:10:27.906Z,27.29
2024-05-09T11:12:53.788Z,27.44
2024-05-09T11:13:23.693Z,27.45
2024-05-09T11:14:23.684Z,27.49
2024-05-09T11:14:53.678Z,27.45
2024-05-09T11:15:23.699Z,27.32
2024-05-09T11:15:53.789Z,27.14
2024-05-09T11:18:53.796Z,26.74
2024-05-09T11:19:23.771Z,26.60
2024-05-09T11:19:53.666Z,26.47
2024-05-09T11:20:53.614Z,26.16
2024-05-09T11:21:23.608Z,26.00
2024-05-09T11:22:23.624Z,25.80
2024-05-09T11:24:23.576Z,25.46
2024-05-09T11:24:53.639Z,25.36
2024-05-09T11:25:23.597Z,25.32
2024-05-09T11:26:53.571Z,25.32
2024-05-09T11:27:23.536Z,25.41
2024-05-09T11:27:53.589Z,25.47
2024-05-09T11:28:23.616Z,25.46
2024-05-09T11:29:53.509Z,25.26
2024-05-09T11:30:29.816Z,25.17
2024-05-09T11:30:53.523Z,25.13
2024-05-09T11:31:23.767Z,25.28
2024-05-09T11:32:23.542Z,25.65
2024-05-09T11:34:23.527Z,25.44
2024-05-09T11:35:23.448Z,25.33
2024-05-09T11:35:53.444Z,25.41
2024-05-09T11:36:23.452Z,25.46
2024-05-09T11:36:53.492Z,25.46
2024-05-09T11:37:53.448Z,25.60
2024-05-09T11:39:53.585Z,25.62
2024-05-09T11:40:53.567Z,25.54
2024-05-09T11:41:23.384Z,25.50
2024-05-09T11:42:23.369Z,25.43
2024-05-09T11:42:53.697Z,25.38
2024-05-09T11:43:23.410Z,25.44
2024-05-09T11:44:23.355Z,25.88
2024-05-09T11:45:23.325Z,26.15
2024-05-09T11:46:23.397Z,26.41
2024-05-09T11:46:53.359Z,26.53
2024-05-09T11:47:53.483Z,26.71
2024-05-09T11:48:23.470Z,26.59
2024-05-09T11:49:26.783Z,26.29
2024-05-09T11:49:53.387Z,26.15
2024-05-09T11:50:53.281Z,25.88
2024-05-09T11:52:23.290Z,25.60
2024-05-09T11:52:53.258Z,25.50
2024-05-09T11:53:23.242Z,25.46
2024-05-09T11:54:53.277Z,25.25
2024-05-09T11:55:27.413Z,25.18